Bethel, Delaware
Current Conditions -  °F | °C
As of 3:54 PM on Saturday 25 Oct 2014 (Local Time) from KGED Reporting Station
Clear Clear  
Wind Chill: 69°   Ceiling: Unl
Heat Index: 69°   Visibility: 10mi
Dew Point: 43°   Wind: 10mph
Humidity: 39%   Direction: 280°W
Pressure: 29.8"   Gusts: 20mph
Location:  38.57°N, 75.62°W
Report Text: KGED 251954Z AUTO 28009G17KT 10SM CLR 21/06 A2980 RMK AO2 SLP089 T02060061 $
Loading
Personal Weather Stations






























Interactive Weather Map
Tropical Storm Tracking
New forecast layout! Learn more

10-Day Weather Forecast

Advertisements
Track Severe Weather on mobile